Аэропорт: Стригино. Нижний Новгород

ICAO: UWGG

METAR:
2024-07-24 15:19:00
UWGG 241519Z 35004MPS 9999 TS SCT040CB 22/16 Q1008 R36R/090070 TEMPO 34008G16MPS -TSRA BKN020CB
TAF:
2024-07-24 13:58:00
TAF UWGG 241358Z 2415/2515 36003MPS 9999 SCT040 TX26/2512Z TN13/2502Z 
  TEMPO 2415/2421 34008G17MPS -TSRA BKN020CB